createdAt,value
2023-03-29T00:00:42.985Z,79.98
2023-03-29T00:03:10.797Z,79.92
2023-03-29T00:05:41.132Z,79.78
2023-03-29T00:08:09.157Z,79.12
2023-03-29T00:10:36.933Z,79.08
2023-03-29T00:13:04.731Z,78.48
2023-03-29T00:15:33.804Z,78.92
2023-03-29T00:18:01.577Z,78.39
2023-03-29T00:20:29.807Z,80.04
2023-03-29T00:22:57.662Z,79.52
2023-03-29T00:25:25.564Z,80.45
2023-03-29T00:27:53.243Z,80.55
2023-03-29T00:30:21.202Z,81.62
2023-03-29T00:32:51.390Z,81.14
2023-03-29T00:35:19.413Z,79.63
2023-03-29T00:37:51.057Z,80.87
2023-03-29T00:40:18.890Z,80.88
2023-03-29T00:42:46.633Z,80.81
2023-03-29T00:45:25.207Z,80.36
2023-03-29T00:47:57.084Z,80.28
2023-03-29T00:50:29.568Z,78.86
2023-03-29T00:53:02.504Z,77.53
2023-03-29T00:55:33.608Z,79.35
2023-03-29T00:58:02.710Z,80.77
2023-03-29T01:00:32.834Z,80.18
2023-03-29T01:03:07.130Z,79.33
2023-03-29T01:05:37.901Z,78.99
2023-03-29T01:08:07.927Z,78.68
2023-03-29T01:10:40.133Z,79.67
2023-03-29T01:13:10.484Z,80.79
2023-03-29T01:15:39.096Z,79.84
2023-03-29T01:18:08.906Z,79.42
2023-03-29T01:20:48.974Z,78.62
2023-03-29T01:23:33.563Z,79.92
2023-03-29T01:26:05.996Z,79.64
2023-03-29T01:28:37.327Z,79.44
2023-03-29T01:31:08.515Z,80.68
2023-03-29T01:33:40.082Z,81.15
2023-03-29T01:36:12.317Z,80.56
2023-03-29T01:38:43.186Z,79.47
2023-03-29T01:41:12.021Z,79.00
2023-03-29T01:43:45.984Z,79.05
2023-03-29T01:46:20.722Z,78.51
2023-03-29T01:48:53.153Z,79.54
2023-03-29T01:51:26.016Z,80.84
2023-03-29T01:53:57.476Z,80.84
2023-03-29T01:56:28.236Z,81.66
2023-03-29T01:59:00.865Z,79.84
2023-03-29T02:01:31.382Z,80.68
2023-03-29T02:04:01.801Z,82.37
2023-03-29T02:06:31.660Z,80.77
2023-03-29T02:08:59.845Z,81.41
2023-03-29T02:11:29.368Z,81.00
2023-03-29T02:13:58.615Z,80.97
2023-03-29T02:16:26.323Z,80.20
2023-03-29T02:18:56.338Z,79.74
2023-03-29T02:21:27.563Z,80.56
2023-03-29T02:23:56.842Z,80.70
2023-03-29T02:26:24.653Z,80.15
2023-03-29T02:28:52.799Z,80.71
2023-03-29T02:31:24.904Z,80.24
2023-03-29T02:33:55.946Z,80.50
2023-03-29T02:36:27.397Z,80.57
2023-03-29T02:38:55.930Z,81.67
2023-03-29T02:41:24.720Z,81.73
2023-03-29T02:43:52.542Z,83.09
2023-03-29T02:46:21.844Z,81.37
2023-03-29T02:48:51.309Z,80.01
2023-03-29T02:51:21.647Z,80.33
2023-03-29T02:53:53.199Z,80.05
2023-03-29T02:56:21.194Z,78.75
2023-03-29T02:58:48.861Z,79.81
2023-03-29T03:01:17.548Z,79.29
2023-03-29T03:03:47.982Z,79.19
2023-03-29T03:06:15.731Z,79.81
2023-03-29T03:08:44.156Z,80.10
2023-03-29T03:11:11.811Z,79.49
2023-03-29T03:13:39.476Z,79.09
2023-03-29T03:16:08.357Z,79.02
2023-03-29T03:18:36.062Z,78.98
2023-03-29T03:21:05.572Z,78.16
2023-03-29T03:23:33.267Z,79.00
2023-03-29T03:26:01.008Z,79.55
2023-03-29T03:28:28.772Z,79.72
2023-03-29T03:30:56.453Z,78.92
2023-03-29T03:33:24.188Z,79.31
2023-03-29T03:35:51.913Z,79.08
2023-03-29T03:38:20.994Z,78.90
2023-03-29T03:40:54.552Z,78.92
2023-03-29T03:43:22.428Z,78.80
2023-03-29T03:45:50.971Z,77.18
2023-03-29T03:48:18.885Z,77.90
2023-03-29T03:50:49.883Z,79.32
2023-03-29T03:53:18.137Z,77.76
2023-03-29T03:55:50.228Z,79.71
2023-03-29T03:58:19.032Z,78.06
2023-03-29T04:00:50.191Z,79.15
2023-03-29T04:03:18.846Z,80.29
2023-03-29T04:05:47.534Z,82.82
2023-03-29T04:08:15.874Z,84.70
2023-03-29T04:10:43.784Z,86.14
2023-03-29T04:13:12.977Z,87.42
2023-03-29T04:15:41.282Z,87.18
2023-03-29T04:18:09.144Z,88.84
2023-03-29T04:20:37.208Z,87.21
2023-03-29T04:23:05.032Z,88.79
2023-03-29T04:25:33.314Z,90.43
2023-03-29T04:28:01.773Z,93.23
2023-03-29T04:30:30.806Z,95.43
2023-03-29T04:32:58.593Z,94.31
2023-03-29T04:35:26.285Z,94.18
2023-03-29T04:37:54.574Z,97.74
2023-03-29T04:40:22.554Z,96.12
2023-03-29T04:42:51.707Z,97.92
2023-03-29T04:45:19.517Z,99.32
2023-03-29T04:47:49.009Z,99.91
2023-03-29T04:50:16.997Z,100.00
2023-03-29T04:52:45.569Z,100.00
2023-03-29T04:55:13.377Z,100.00
2023-03-29T04:57:41.242Z,100.00
2023-03-29T05:00:15.101Z,100.00
2023-03-29T05:02:44.351Z,99.83
2023-03-29T05:05:14.320Z,100.00
2023-03-29T05:07:41.977Z,100.00
2023-03-29T05:10:10.324Z,100.00
2023-03-29T05:12:38.486Z,100.00
2023-03-29T05:15:08.089Z,100.00
2023-03-29T05:17:36.006Z,100.00
2023-03-29T05:20:09.122Z,100.00
2023-03-29T05:22:38.329Z,100.00
2023-03-29T05:25:07.097Z,100.00
2023-03-29T05:27:35.204Z,100.00
2023-03-29T05:30:02.959Z,100.00
2023-03-29T05:32:31.013Z,100.00
2023-03-29T05:34:58.676Z,100.00
2023-03-29T05:37:26.604Z,100.00
2023-03-29T05:40:05.608Z,100.00
2023-03-29T05:42:34.098Z,100.00
2023-03-29T05:45:01.792Z,100.00
2023-03-29T05:47:29.559Z,100.00
2023-03-29T05:49:57.334Z,100.00
2023-03-29T05:52:25.196Z,100.00
2023-03-29T05:54:52.917Z,100.00
2023-03-29T05:57:22.767Z,100.00
2023-03-29T05:59:50.592Z,100.00
2023-03-29T06:02:18.788Z,100.00
2023-03-29T06:04:46.729Z,100.00
2023-03-29T06:07:14.753Z,100.00
2023-03-29T06:09:42.488Z,99.77
2023-03-29T06:12:10.518Z,100.00
2023-03-29T06:14:40.171Z,100.00
2023-03-29T06:17:07.940Z,100.00
2023-03-29T06:19:35.785Z,100.00
2023-03-29T06:22:03.739Z,100.00
2023-03-29T06:24:31.658Z,100.00
2023-03-29T06:26:59.429Z,99.97
2023-03-29T06:29:27.117Z,100.00
2023-03-29T06:31:57.143Z,96.95
2023-03-29T06:34:25.059Z,98.44
2023-03-29T06:36:52.976Z,98.92
2023-03-29T06:39:20.599Z,98.57
2023-03-29T06:41:49.028Z,100.00
2023-03-29T06:44:17.356Z,100.00
2023-03-29T06:46:45.492Z,100.00
2023-03-29T06:49:14.655Z,98.53
2023-03-29T06:51:42.460Z,98.27
2023-03-29T06:54:10.223Z,97.88
2023-03-29T06:56:37.918Z,96.05
2023-03-29T06:59:05.804Z,95.34
2023-03-29T07:01:34.641Z,94.98
2023-03-29T07:04:08.187Z,93.26
2023-03-29T07:06:39.047Z,92.85
2023-03-29T07:09:07.880Z,90.97
2023-03-29T07:11:36.325Z,92.62
2023-03-29T07:14:04.015Z,92.76
2023-03-29T07:16:32.688Z,92.72
2023-03-29T07:19:01.397Z,91.02
2023-03-29T07:21:29.446Z,89.09
2023-03-29T07:23:59.070Z,87.87
2023-03-29T07:26:29.037Z,87.07
2023-03-29T07:28:58.723Z,87.13
2023-03-29T07:31:26.616Z,86.02
2023-03-29T07:33:54.326Z,86.54
2023-03-29T07:36:22.061Z,86.31
2023-03-29T07:38:49.963Z,85.27
2023-03-29T07:41:19.015Z,83.63
2023-03-29T07:43:46.977Z,82.79
2023-03-29T07:46:14.696Z,81.69
2023-03-29T07:48:42.432Z,81.51
2023-03-29T07:51:10.154Z,82.99
2023-03-29T07:53:38.502Z,82.86
2023-03-29T07:56:06.804Z,82.31
2023-03-29T07:58:36.204Z,83.11
2023-03-29T08:01:04.135Z,82.18
2023-03-29T08:03:32.029Z,81.68
2023-03-29T08:06:02.848Z,80.52
2023-03-29T08:08:30.509Z,81.65
2023-03-29T08:10:58.576Z,82.24
2023-03-29T08:13:26.301Z,81.92
2023-03-29T08:15:55.610Z,82.73
2023-03-29T08:18:23.342Z,82.86
2023-03-29T08:20:51.737Z,81.63
2023-03-29T08:23:19.516Z,80.13
2023-03-29T08:25:47.360Z,78.78
2023-03-29T08:28:15.050Z,76.73
2023-03-29T08:30:43.090Z,76.09
2023-03-29T08:33:12.259Z,75.02
2023-03-29T08:35:40.016Z,75.02
2023-03-29T08:38:08.313Z,75.30
2023-03-29T08:40:36.732Z,74.41
2023-03-29T08:43:18.265Z,73.65
2023-03-29T08:45:53.149Z,73.26
2023-03-29T08:48:25.777Z,71.77
2023-03-29T08:50:56.087Z,71.12
2023-03-29T08:53:26.332Z,71.04
2023-03-29T08:55:54.824Z,69.44
2023-03-29T08:58:25.566Z,69.21
2023-03-29T09:00:55.143Z,69.64
2023-03-29T09:03:26.101Z,69.13
2023-03-29T09:05:57.707Z,69.42
2023-03-29T09:08:25.920Z,67.71
2023-03-29T09:11:06.772Z,66.37
2023-03-29T09:13:40.075Z,66.46
2023-03-29T09:16:13.370Z,67.35
2023-03-29T09:18:50.458Z,64.86
2023-03-29T09:21:22.328Z,66.90
2023-03-29T09:23:58.436Z,65.32
2023-03-29T09:26:29.432Z,65.12
2023-03-29T09:29:09.647Z,63.74
2023-03-29T09:31:40.358Z,63.07
2023-03-29T09:34:13.645Z,61.07
2023-03-29T09:36:47.416Z,61.17
2023-03-29T09:39:16.320Z,64.76
2023-03-29T09:41:48.267Z,65.58
2023-03-29T09:44:30.290Z,64.51
2023-03-29T09:47:02.952Z,65.26
2023-03-29T09:49:34.581Z,65.58
2023-03-29T09:52:05.902Z,66.30
2023-03-29T09:54:33.767Z,64.51
2023-03-29T09:57:02.013Z,63.44
2023-03-29T09:59:29.741Z,64.39
2023-03-29T10:02:07.380Z,63.26
2023-03-29T10:04:36.919Z,65.39
2023-03-29T10:07:05.746Z,67.73
2023-03-29T10:09:34.165Z,68.57
2023-03-29T10:12:03.457Z,69.75
2023-03-29T10:14:34.829Z,69.68
2023-03-29T10:17:05.773Z,70.36
2023-03-29T10:19:36.736Z,68.72
2023-03-29T10:22:09.307Z,68.09
2023-03-29T10:24:37.232Z,68.81
2023-03-29T10:27:08.406Z,69.42
2023-03-29T10:29:38.464Z,68.33
2023-03-29T10:32:15.579Z,66.47
2023-03-29T10:34:46.345Z,64.72
2023-03-29T10:37:16.530Z,62.59
2023-03-29T10:39:44.388Z,61.22
2023-03-29T10:42:15.062Z,62.75
2023-03-29T10:44:42.890Z,62.24
2023-03-29T10:47:16.012Z,59.53
2023-03-29T10:49:48.054Z,59.26
2023-03-29T10:52:17.318Z,59.23
2023-03-29T10:54:45.203Z,58.31
2023-03-29T10:57:16.240Z,58.18
2023-03-29T10:59:51.164Z,58.12
2023-03-29T11:02:43.480Z,56.54
2023-03-29T11:05:32.616Z,55.44
2023-03-29T11:08:20.724Z,54.77
2023-03-29T11:10:55.225Z,54.92
2023-03-29T11:13:30.200Z,55.22
2023-03-29T11:16:06.835Z,56.30
2023-03-29T11:18:50.668Z,57.34
2023-03-29T11:21:26.079Z,55.45
2023-03-29T11:24:01.915Z,54.20
2023-03-29T11:26:35.711Z,54.15
2023-03-29T11:29:05.697Z,54.05
2023-03-29T11:31:39.132Z,57.50
2023-03-29T11:34:16.412Z,56.64
2023-03-29T11:36:50.683Z,57.61
2023-03-29T11:39:28.012Z,58.13
2023-03-29T11:41:58.301Z,59.54
2023-03-29T11:44:28.350Z,59.98
2023-03-29T11:47:00.715Z,58.69
2023-03-29T11:49:31.034Z,57.75
2023-03-29T11:52:06.304Z,56.32
2023-03-29T11:54:38.311Z,56.18
2023-03-29T11:57:12.192Z,55.22
2023-03-29T11:59:44.942Z,55.08
2023-03-29T12:02:17.905Z,57.21
2023-03-29T12:04:50.035Z,57.46
2023-03-29T12:07:22.533Z,55.73
2023-03-29T12:09:52.303Z,53.71
2023-03-29T12:12:23.331Z,52.67
2023-03-29T12:14:57.348Z,51.22
2023-03-29T12:17:30.107Z,51.68
2023-03-29T12:20:05.451Z,51.92
2023-03-29T12:22:34.792Z,51.96
2023-03-29T12:25:04.655Z,54.85
2023-03-29T12:27:35.306Z,56.88
2023-03-29T12:30:23.450Z,59.19
2023-03-29T12:33:04.894Z,61.60
2023-03-29T12:35:38.607Z,60.73
2023-03-29T12:38:14.105Z,59.89
2023-03-29T12:40:44.081Z,60.69
2023-03-29T12:43:18.643Z,62.21
2023-03-29T12:45:48.613Z,61.10
2023-03-29T12:48:17.646Z,61.19
2023-03-29T12:50:48.567Z,62.10
2023-03-29T12:53:20.084Z,63.19
2023-03-29T12:55:56.024Z,61.23
2023-03-29T12:58:33.624Z,60.88
2023-03-29T13:01:07.258Z,60.05
2023-03-29T13:03:48.214Z,59.94
2023-03-29T13:06:28.924Z,59.98
2023-03-29T13:09:02.058Z,60.35
2023-03-29T13:11:34.447Z,61.28
2023-03-29T13:14:04.350Z,64.02
2023-03-29T13:16:34.656Z,66.12
2023-03-29T13:19:10.931Z,67.14
2023-03-29T13:21:45.168Z,64.90
2023-03-29T13:24:31.971Z,62.11
2023-03-29T13:27:02.506Z,63.19
2023-03-29T13:29:58.719Z,62.58
2023-03-29T13:32:51.292Z,64.58
2023-03-29T13:35:28.534Z,65.15
2023-03-29T13:38:02.246Z,65.26
2023-03-29T13:40:44.985Z,65.43
2023-03-29T13:43:23.607Z,65.32
2023-03-29T13:46:24.116Z,64.77
2023-03-29T13:49:05.392Z,63.64
2023-03-29T13:51:36.243Z,63.02
2023-03-29T13:54:09.058Z,62.28
2023-03-29T13:56:41.622Z,61.78
2023-03-29T13:59:13.615Z,62.68
2023-03-29T14:01:45.966Z,63.60
2023-03-29T14:04:17.386Z,65.72
2023-03-29T14:06:51.077Z,66.99
2023-03-29T14:09:19.375Z,69.60
2023-03-29T14:11:48.997Z,69.83
2023-03-29T14:14:17.786Z,69.77
2023-03-29T14:16:45.637Z,72.84
2023-03-29T14:19:15.757Z,74.46
2023-03-29T14:21:43.882Z,76.67
2023-03-29T14:24:13.272Z,78.33
2023-03-29T14:26:44.910Z,77.94
2023-03-29T14:29:13.993Z,79.99
2023-03-29T14:31:43.437Z,80.43
2023-03-29T14:34:15.329Z,82.06
2023-03-29T14:36:44.874Z,79.94
2023-03-29T14:39:16.406Z,76.16
2023-03-29T14:41:49.789Z,75.76
2023-03-29T14:44:19.776Z,76.77
2023-03-29T14:46:48.024Z,76.16
2023-03-29T14:49:17.260Z,75.51
2023-03-29T14:51:45.256Z,73.33
2023-03-29T14:54:19.387Z,73.22
2023-03-29T14:56:48.016Z,73.32
2023-03-29T14:59:27.103Z,75.75
2023-03-29T15:01:55.146Z,74.63
2023-03-29T15:04:22.803Z,75.06
2023-03-29T15:06:52.410Z,73.12
2023-03-29T15:09:28.627Z,73.35
2023-03-29T15:11:57.735Z,74.23
2023-03-29T15:14:28.704Z,74.67
2023-03-29T15:17:01.702Z,75.18
2023-03-29T15:19:29.478Z,75.44
2023-03-29T15:21:57.173Z,75.33
2023-03-29T15:24:30.388Z,75.10
2023-03-29T15:27:03.359Z,71.87
2023-03-29T15:29:41.853Z,71.60
2023-03-29T15:32:10.383Z,73.34
2023-03-29T15:34:39.068Z,72.71
2023-03-29T15:37:08.105Z,73.22
2023-03-29T15:39:36.027Z,73.27
2023-03-29T15:42:03.837Z,74.40
2023-03-29T15:44:35.272Z,75.91
2023-03-29T15:47:04.423Z,79.50
2023-03-29T15:49:32.317Z,82.66
2023-03-29T15:51:59.951Z,81.94
2023-03-29T15:54:29.105Z,82.62
2023-03-29T15:57:01.010Z,79.39
2023-03-29T15:59:28.907Z,78.55
2023-03-29T16:01:58.210Z,79.76
2023-03-29T16:04:27.610Z,82.26
2023-03-29T16:06:56.214Z,83.80
2023-03-29T16:09:25.659Z,83.66
2023-03-29T16:11:53.302Z,83.34
2023-03-29T16:14:23.145Z,83.28
2023-03-29T16:16:50.982Z,84.66
2023-03-29T16:19:19.509Z,82.42
2023-03-29T16:21:49.188Z,84.00
2023-03-29T16:24:19.555Z,82.06
2023-03-29T16:26:47.840Z,84.21
2023-03-29T16:29:17.325Z,85.43
2023-03-29T16:31:45.535Z,84.56
2023-03-29T16:34:13.997Z,84.00
2023-03-29T16:36:43.527Z,83.00
2023-03-29T16:39:13.406Z,83.66
2023-03-29T16:41:41.796Z,83.49
2023-03-29T16:44:14.266Z,83.40
2023-03-29T16:46:42.164Z,82.64
2023-03-29T16:49:13.916Z,82.44
2023-03-29T16:51:41.692Z,83.16
2023-03-29T16:54:09.572Z,84.29
2023-03-29T16:56:38.733Z,85.58
2023-03-29T16:59:06.438Z,85.97
2023-03-29T17:01:34.186Z,88.09
2023-03-29T17:04:01.979Z,88.23
2023-03-29T17:06:31.826Z,88.33
2023-03-29T17:09:00.674Z,87.88
2023-03-29T17:11:29.065Z,87.85
2023-03-29T17:13:58.418Z,87.61
2023-03-29T17:16:28.868Z,87.85
2023-03-29T17:18:58.473Z,88.96
2023-03-29T17:21:26.466Z,89.13
2023-03-29T17:23:54.177Z,89.26
2023-03-29T17:26:21.885Z,89.14
2023-03-29T17:28:49.600Z,88.86
2023-03-29T17:31:19.420Z,89.51
2023-03-29T17:33:47.300Z,91.20
2023-03-29T17:36:15.136Z,92.37
2023-03-29T17:38:43.066Z,92.19
2023-03-29T17:41:11.045Z,93.50
2023-03-29T17:43:38.795Z,94.42
2023-03-29T17:46:07.060Z,96.77
2023-03-29T17:48:36.094Z,98.19
2023-03-29T17:51:03.876Z,98.02
2023-03-29T17:53:31.558Z,99.11
2023-03-29T17:55:59.259Z,100.00
2023-03-29T17:58:27.118Z,100.00
2023-03-29T18:00:54.857Z,100.00
2023-03-29T18:03:22.728Z,100.00
2023-03-29T18:05:51.842Z,100.00
2023-03-29T18:08:19.603Z,100.00
2023-03-29T18:10:47.329Z,100.00
2023-03-29T18:13:15.730Z,100.00
2023-03-29T18:15:45.077Z,100.00
2023-03-29T18:18:12.843Z,100.00
2023-03-29T18:20:40.629Z,100.00
2023-03-29T18:23:09.720Z,100.00
2023-03-29T18:25:38.617Z,100.00
2023-03-29T18:28:06.290Z,100.00
2023-03-29T18:30:34.038Z,100.00
2023-03-29T18:33:01.873Z,100.00
2023-03-29T18:35:29.605Z,100.00
2023-03-29T18:37:57.358Z,100.00
2023-03-29T18:40:27.626Z,100.00
2023-03-29T18:42:55.422Z,100.00
2023-03-29T18:45:23.265Z,100.00
2023-03-29T18:47:52.393Z,100.00
2023-03-29T18:50:20.201Z,100.00
2023-03-29T18:52:47.856Z,100.00
2023-03-29T18:55:15.846Z,100.00
2023-03-29T18:57:44.904Z,100.00
2023-03-29T19:00:13.314Z,100.00
2023-03-29T19:02:41.451Z,100.00
2023-03-29T19:05:09.713Z,100.00
2023-03-29T19:07:37.440Z,100.00
2023-03-29T19:10:06.679Z,100.00
2023-03-29T19:12:34.434Z,100.00
2023-03-29T19:15:03.701Z,100.00
2023-03-29T19:17:31.444Z,100.00
2023-03-29T19:19:59.292Z,100.00
2023-03-29T19:22:26.978Z,100.00
2023-03-29T19:24:54.734Z,100.00
2023-03-29T19:27:22.456Z,100.00
2023-03-29T19:29:50.788Z,100.00
2023-03-29T19:32:19.837Z,100.00
2023-03-29T19:34:47.703Z,100.00
2023-03-29T19:37:17.422Z,100.00
2023-03-29T19:39:45.492Z,100.00
2023-03-29T19:42:13.237Z,100.00
2023-03-29T19:44:40.937Z,100.00
2023-03-29T19:47:08.619Z,100.00
2023-03-29T19:49:38.253Z,100.00
2023-03-29T19:52:06.308Z,100.00
2023-03-29T19:54:34.085Z,100.00
2023-03-29T19:57:02.728Z,100.00
2023-03-29T19:59:31.460Z,100.00
2023-03-29T20:01:59.365Z,100.00
2023-03-29T20:04:28.838Z,100.00
2023-03-29T20:06:58.497Z,100.00
2023-03-29T20:09:26.145Z,100.00
2023-03-29T20:11:53.793Z,100.00
2023-03-29T20:14:21.539Z,100.00
2023-03-29T20:16:50.706Z,100.00
2023-03-29T20:19:18.707Z,100.00
2023-03-29T20:21:46.344Z,100.00
2023-03-29T20:24:15.607Z,100.00
2023-03-29T20:26:43.264Z,100.00
2023-03-29T20:29:11.024Z,100.00
2023-03-29T20:31:38.785Z,100.00
2023-03-29T20:34:06.501Z,100.00
2023-03-29T20:36:34.219Z,100.00
2023-03-29T20:39:01.924Z,100.00
2023-03-29T20:41:31.423Z,100.00
2023-03-29T20:44:00.112Z,100.00
2023-03-29T20:46:33.434Z,100.00
2023-03-29T20:49:01.681Z,100.00
2023-03-29T20:51:30.431Z,100.00
2023-03-29T20:54:02.803Z,100.00
2023-03-29T20:56:33.300Z,100.00
2023-03-29T20:59:00.986Z,100.00
2023-03-29T21:01:29.621Z,100.00
2023-03-29T21:03:57.543Z,100.00
2023-03-29T21:06:25.535Z,100.00
2023-03-29T21:08:53.655Z,100.00
2023-03-29T21:11:21.960Z,100.00
2023-03-29T21:13:52.786Z,100.00
2023-03-29T21:16:20.650Z,100.00
2023-03-29T21:18:48.424Z,100.00
2023-03-29T21:21:16.349Z,100.00
2023-03-29T21:23:44.136Z,100.00
2023-03-29T21:26:12.002Z,100.00
2023-03-29T21:28:40.956Z,100.00
2023-03-29T21:31:10.342Z,100.00
2023-03-29T21:33:38.079Z,100.00
2023-03-29T21:36:06.419Z,100.00
2023-03-29T21:38:34.176Z,100.00
2023-03-29T21:41:02.451Z,100.00
2023-03-29T21:43:30.416Z,100.00
2023-03-29T21:45:58.062Z,100.00
2023-03-29T21:48:27.227Z,100.00
2023-03-29T21:50:54.959Z,100.00
2023-03-29T21:53:22.701Z,100.00
2023-03-29T21:55:50.523Z,100.00
2023-03-29T21:58:19.254Z,100.00
2023-03-29T22:00:47.939Z,100.00
2023-03-29T22:03:16.434Z,100.00
2023-03-29T22:05:56.421Z,100.00
2023-03-29T22:08:26.349Z,100.00
2023-03-29T22:10:56.935Z,100.00
2023-03-29T22:13:26.162Z,100.00
2023-03-29T22:15:58.646Z,100.00
2023-03-29T22:18:27.999Z,100.00
2023-03-29T22:20:57.355Z,100.00
2023-03-29T22:23:25.757Z,100.00
2023-03-29T22:25:53.487Z,100.00
2023-03-29T22:28:21.150Z,100.00
2023-03-29T22:30:48.857Z,100.00
2023-03-29T22:33:16.591Z,100.00
2023-03-29T22:35:44.380Z,100.00
2023-03-29T22:38:13.430Z,100.00
2023-03-29T22:40:41.296Z,100.00
2023-03-29T22:43:08.951Z,100.00
2023-03-29T22:45:37.278Z,100.00
2023-03-29T22:48:05.319Z,100.00
2023-03-29T22:50:33.082Z,100.00
2023-03-29T22:53:00.866Z,100.00
2023-03-29T22:55:29.947Z,100.00
2023-03-29T22:57:57.608Z,100.00
2023-03-29T23:00:25.234Z,99.80
2023-03-29T23:02:52.941Z,99.59
2023-03-29T23:05:20.680Z,100.00
2023-03-29T23:07:48.375Z,99.26
2023-03-29T23:10:16.778Z,98.73
2023-03-29T23:12:45.839Z,100.00
2023-03-29T23:15:13.720Z,99.02
2023-03-29T23:17:41.962Z,100.00
2023-03-29T23:20:11.282Z,98.92
2023-03-29T23:22:39.686Z,97.95
2023-03-29T23:25:08.490Z,96.64
2023-03-29T23:27:36.182Z,97.65
2023-03-29T23:30:07.538Z,97.19
2023-03-29T23:32:35.295Z,95.72
2023-03-29T23:35:04.480Z,92.76
2023-03-29T23:37:32.160Z,91.24
2023-03-29T23:39:59.860Z,90.08
2023-03-29T23:42:27.629Z,86.91
2023-03-29T23:44:55.901Z,87.22
2023-03-29T23:47:24.990Z,87.06
2023-03-29T23:49:53.200Z,86.13
2023-03-29T23:52:21.008Z,84.92
2023-03-29T23:54:48.634Z,86.64
2023-03-29T23:57:16.369Z,85.80
2023-03-29T23:59:44.074Z,86.16
